aviador You're here:

CYQB Decoded Metar

QUEBEC in QC, CANADA
Report Time2017-10-17 20:00:00
UTC Time2017-10-17 20:13:02
Flight Rules vfr VFR
Wind230° at 08 kt
W.Decomp.*RWY 24: 7.9 kt HW 1.0 kt RCW
RWY 30: 4.8 kt HW 6.4 kt LCW
W.Rank230° ranks 5
Current wind is below 230° avg. (9.9)
Visibility9999 m
Phenomena:N/A
Clouds:Few 020 Hf
Few 040 Hf
Few 070 Hf
Broken 100 Hf
Expected CloudBase > 3,200 ft AGL from Temp-Dew spread
Ceiling10,000 ft
Temp08°C (ISA -7)
Dew Point00°C (57% RH)
AAT3.1°C
QNH1017 hPa
Density Alt-594 ft
Elevation240 ft
Report Wrong Elevation
Raw Report
CYQB 172000Z 23008KT 30SM FEW020 FEW040 FEW070 BKN100 08/00 A3003
RMK CU1SC1AC1AC5 CU TR SLP175=

Extra information for CYQB:More info

Metar Taf Metar & Taf Last 4 Metars F.Rules Stats Wind Profile Meteogram Temp Stats Airport Information Weather charts Add Link Nearby VenuesMetar ALERT Operation Metar Decoded Social comments

navcanada